createdAt,value
2018-06-11T00:01:07.057Z,15.60
2018-06-11T00:03:35.448Z,15.50
2018-06-11T00:06:03.852Z,15.50
2018-06-11T00:08:32.175Z,15.40
2018-06-11T00:11:00.506Z,15.40
2018-06-11T00:13:28.837Z,15.40
2018-06-11T00:15:57.247Z,15.40
2018-06-11T00:18:25.559Z,15.40
2018-06-11T00:20:54.076Z,15.40
2018-06-11T00:23:22.447Z,15.40
2018-06-11T00:25:50.737Z,15.40
2018-06-11T00:28:19.103Z,15.40
2018-06-11T00:30:47.479Z,15.40
2018-06-11T00:33:15.815Z,15.50
2018-06-11T00:35:44.136Z,15.50
2018-06-11T00:38:12.444Z,15.50
2018-06-11T00:43:08.805Z,15.50
2018-06-11T00:45:37.189Z,15.50
2018-06-11T00:48:05.576Z,15.50
2018-06-11T00:50:33.872Z,15.50
2018-06-11T00:53:02.221Z,15.50
2018-06-11T00:55:41.955Z,15.50
2018-06-11T00:58:10.255Z,15.50
2018-06-11T01:00:38.574Z,15.40
2018-06-11T01:03:06.951Z,15.40
2018-06-11T01:05:35.283Z,15.40
2018-06-11T01:08:03.599Z,15.40
2018-06-11T01:10:31.905Z,15.30
2018-06-11T01:13:00.245Z,15.30
2018-06-11T01:15:28.496Z,15.20
2018-06-11T01:17:56.809Z,15.20
2018-06-11T01:20:25.086Z,15.10
2018-06-11T01:22:53.396Z,15.00
2018-06-11T01:25:21.767Z,14.90
2018-06-11T01:27:50.072Z,14.90
2018-06-11T01:30:18.387Z,14.80
2018-06-11T01:32:46.745Z,14.70
2018-06-11T01:35:15.059Z,14.70
2018-06-11T01:37:43.400Z,14.70
2018-06-11T01:40:11.708Z,14.70
2018-06-11T01:42:40.088Z,14.70
2018-06-11T01:45:08.362Z,14.70
2018-06-11T01:47:36.828Z,14.70
2018-06-11T01:50:05.148Z,14.80
2018-06-11T01:55:01.534Z,14.80
2018-06-11T01:57:29.854Z,14.90
2018-06-11T01:59:58.223Z,14.90
2018-06-11T02:02:26.520Z,14.90
2018-06-11T02:04:54.893Z,14.90
2018-06-11T02:07:23.280Z,14.90
2018-06-11T02:09:51.685Z,15.00
2018-06-11T02:12:20.263Z,15.00
2018-06-11T02:14:48.556Z,15.00
2018-06-11T02:17:16.964Z,15.00
2018-06-11T02:19:45.267Z,15.00
2018-06-11T02:22:13.588Z,15.00
2018-06-11T02:24:41.916Z,15.10
2018-06-11T02:27:10.447Z,15.00
2018-06-11T02:29:42.543Z,15.00
2018-06-11T02:32:10.800Z,15.10
2018-06-11T02:34:39.134Z,15.10
2018-06-11T02:37:07.407Z,15.10
2018-06-11T02:39:35.616Z,15.10
2018-06-11T02:42:03.964Z,15.10
2018-06-11T02:44:32.245Z,15.10
2018-06-11T02:47:00.457Z,15.10
2018-06-11T02:49:28.697Z,15.20
2018-06-11T02:51:56.930Z,15.10
2018-06-11T02:54:25.177Z,15.10
2018-06-11T02:56:53.401Z,15.10
2018-06-11T03:01:49.697Z,15.20
2018-06-11T03:04:17.921Z,15.20
2018-06-11T03:06:46.157Z,15.20
2018-06-11T03:09:14.403Z,15.30
2018-06-11T03:11:42.669Z,15.30
2018-06-11T03:14:10.929Z,15.30
2018-06-11T03:16:39.155Z,15.30
2018-06-11T03:19:07.815Z,15.30
2018-06-11T03:21:36.187Z,15.40
2018-06-11T03:24:04.423Z,15.30
2018-06-11T03:26:32.658Z,15.40
2018-06-11T03:29:00.930Z,15.40
2018-06-11T03:31:29.213Z,15.40
2018-06-11T03:33:57.471Z,15.40
2018-06-11T03:36:25.700Z,15.50
2018-06-11T03:38:53.950Z,15.50
2018-06-11T03:41:22.204Z,15.50
2018-06-11T03:43:50.480Z,15.50
2018-06-11T03:46:18.732Z,15.50
2018-06-11T03:48:47.057Z,15.50
2018-06-11T03:51:15.305Z,15.50
2018-06-11T03:53:43.605Z,15.50
2018-06-11T03:56:11.865Z,15.60
2018-06-11T03:58:41.377Z,15.60
2018-06-11T04:01:10.361Z,15.60
2018-06-11T04:03:38.649Z,15.60
2018-06-11T04:06:08.931Z,15.60
2018-06-11T04:08:37.231Z,15.70
2018-06-11T04:11:05.613Z,15.70
2018-06-11T04:13:33.797Z,15.70
2018-06-11T04:16:02.079Z,15.70
2018-06-11T04:18:30.341Z,15.70
2018-06-11T04:20:58.624Z,15.70
2018-06-11T04:23:27.703Z,15.70
2018-06-11T04:25:55.947Z,15.80
2018-06-11T04:30:52.174Z,15.80
2018-06-11T04:33:20.415Z,15.80
2018-06-11T04:35:48.674Z,15.80
2018-06-11T04:38:16.949Z,15.80
2018-06-11T04:40:45.176Z,15.90
2018-06-11T04:43:13.436Z,15.90
2018-06-11T04:45:41.675Z,15.90
2018-06-11T04:48:09.907Z,15.90
2018-06-11T04:50:38.152Z,16.00
2018-06-11T04:53:06.461Z,16.00
2018-06-11T04:55:34.700Z,16.10
2018-06-11T04:58:02.988Z,16.10
2018-06-11T05:00:31.253Z,16.20
2018-06-11T05:02:59.505Z,16.20
2018-06-11T05:05:27.774Z,16.30
2018-06-11T05:07:56.107Z,16.30
2018-06-11T05:10:24.355Z,16.30
2018-06-11T05:12:52.621Z,16.40
2018-06-11T05:15:20.854Z,16.50
2018-06-11T05:17:49.160Z,16.50
2018-06-11T05:20:17.440Z,16.60
2018-06-11T05:22:47.709Z,16.60
2018-06-11T05:25:15.969Z,16.60
2018-06-11T05:27:44.263Z,16.70
2018-06-11T05:30:12.542Z,16.70
2018-06-11T05:32:40.813Z,16.70
2018-06-11T05:35:09.089Z,16.70
2018-06-11T05:37:37.353Z,16.60
2018-06-11T05:42:33.563Z,16.70
2018-06-11T05:45:01.890Z,16.70
2018-06-11T05:47:30.125Z,16.80
2018-06-11T05:49:58.377Z,16.90
2018-06-11T05:52:26.672Z,16.90
2018-06-11T05:54:54.929Z,16.90
2018-06-11T05:57:23.155Z,16.90
2018-06-11T05:59:51.462Z,17.00
2018-06-11T06:02:20.233Z,17.00
2018-06-11T06:04:48.642Z,17.00
2018-06-11T06:07:16.944Z,17.00
2018-06-11T06:09:45.172Z,17.00
2018-06-11T06:12:13.534Z,17.00
2018-06-11T06:14:41.793Z,17.00
2018-06-11T06:17:10.090Z,17.10
2018-06-11T06:19:38.445Z,17.10
2018-06-11T06:22:06.657Z,17.10
2018-06-11T06:24:34.992Z,17.10
2018-06-11T06:27:03.833Z,17.10
2018-06-11T06:29:32.084Z,17.20
2018-06-11T06:32:00.381Z,17.20
2018-06-11T06:34:28.713Z,17.30
2018-06-11T06:36:56.913Z,17.30
2018-06-11T06:39:25.164Z,17.30
2018-06-11T06:41:53.428Z,17.30
2018-06-11T06:44:21.745Z,17.30
2018-06-11T06:46:50.020Z,17.30
2018-06-11T06:49:18.302Z,17.40
2018-06-11T06:51:46.574Z,17.50
2018-06-11T06:54:14.895Z,17.60
2018-06-11T06:56:43.128Z,17.70
2018-06-11T06:59:11.412Z,17.80
2018-06-11T07:01:39.684Z,18.00
2018-06-11T07:04:07.956Z,18.20
2018-06-11T07:06:36.172Z,18.30
2018-06-11T07:09:07.193Z,18.40
2018-06-11T07:11:35.715Z,18.50
2018-06-11T07:14:03.993Z,18.60
2018-06-11T07:16:32.316Z,18.70
2018-06-11T07:19:00.585Z,18.70
2018-06-11T07:21:31.736Z,18.80
2018-06-11T07:26:28.044Z,18.90
2018-06-11T07:28:56.276Z,18.90
2018-06-11T07:31:24.574Z,18.90
2018-06-11T07:33:52.841Z,18.90
2018-06-11T07:36:21.140Z,18.90
2018-06-11T07:38:49.397Z,18.90
2018-06-11T07:41:17.652Z,19.10
2018-06-11T07:43:45.921Z,19.10
2018-06-11T07:46:15.329Z,19.20
2018-06-11T07:48:43.807Z,19.20
2018-06-11T07:51:12.685Z,19.30
2018-06-11T07:53:41.044Z,19.30
2018-06-11T07:56:09.375Z,19.30
2018-06-11T07:58:37.617Z,19.40
2018-06-11T08:01:05.976Z,19.40
2018-06-11T08:03:34.254Z,19.40
2018-06-11T08:06:02.469Z,19.40
2018-06-11T08:08:30.733Z,19.40
2018-06-11T08:10:58.980Z,19.60
2018-06-11T08:13:27.299Z,19.60
2018-06-11T08:15:55.460Z,19.80
2018-06-11T08:18:23.732Z,20.00
2018-06-11T08:20:52.300Z,20.10
2018-06-11T08:23:20.496Z,20.10
2018-06-11T08:25:48.763Z,20.20
2018-06-11T08:28:16.968Z,20.30
2018-06-11T08:30:45.417Z,20.40
2018-06-11T08:33:13.724Z,20.50
2018-06-11T08:35:41.970Z,20.50
2018-06-11T08:38:10.251Z,20.60
2018-06-11T08:40:38.539Z,20.50
2018-06-11T08:43:06.876Z,20.60
2018-06-11T08:45:35.089Z,20.60
2018-06-11T08:48:03.405Z,20.60
2018-06-11T08:50:31.795Z,20.60
2018-06-11T08:53:00.009Z,20.80
2018-06-11T08:55:28.248Z,21.00
2018-06-11T08:57:56.542Z,21.20
2018-06-11T09:00:24.888Z,21.50
2018-06-11T09:02:53.132Z,21.70
2018-06-11T09:05:21.421Z,21.70
2018-06-11T09:07:49.727Z,21.90
2018-06-11T09:10:18.058Z,21.90
2018-06-11T09:12:46.457Z,21.90
2018-06-11T09:15:14.779Z,22.10
2018-06-11T09:17:43.060Z,22.10
2018-06-11T09:20:11.393Z,22.30
2018-06-11T09:22:39.674Z,22.70
2018-06-11T09:25:08.029Z,23.10
2018-06-11T09:27:36.289Z,23.40
2018-06-11T09:30:05.181Z,23.60
2018-06-11T09:32:33.419Z,23.80
2018-06-11T09:35:01.701Z,24.20
2018-06-11T09:37:29.975Z,24.50
2018-06-11T09:39:58.228Z,24.50
2018-06-11T09:42:26.533Z,24.50
2018-06-11T09:44:55.046Z,24.60
2018-06-11T09:47:23.405Z,24.70
2018-06-11T09:49:52.540Z,24.90
2018-06-11T09:52:20.817Z,24.90
2018-06-11T09:57:17.288Z,25.00
2018-06-11T09:59:45.564Z,25.10
2018-06-11T10:02:13.821Z,25.10
2018-06-11T10:04:42.091Z,25.00
2018-06-11T10:07:10.396Z,25.00
2018-06-11T10:09:38.632Z,24.80
2018-06-11T10:14:35.033Z,24.30
2018-06-11T10:17:03.405Z,24.30
2018-06-11T10:19:31.705Z,24.40
2018-06-11T10:21:59.970Z,24.60
2018-06-11T10:24:28.309Z,24.70
2018-06-11T10:26:56.889Z,24.60
2018-06-11T10:29:25.134Z,24.50
2018-06-11T10:31:53.855Z,24.40
2018-06-11T10:34:22.080Z,24.40
2018-06-11T10:36:50.473Z,24.30
2018-06-11T10:39:18.788Z,24.40
2018-06-11T10:41:47.530Z,24.50
2018-06-11T10:44:15.816Z,24.60
2018-06-11T10:46:44.100Z,24.60
2018-06-11T10:49:12.360Z,24.40
2018-06-11T10:51:40.625Z,24.40
2018-06-11T10:54:08.882Z,24.50
2018-06-11T10:56:37.312Z,24.80
2018-06-11T10:59:05.917Z,25.20
2018-06-11T11:01:34.161Z,25.60
2018-06-11T11:04:02.449Z,26.00
2018-06-11T11:06:30.713Z,26.30
2018-06-11T11:08:58.973Z,26.50
2018-06-11T11:11:27.226Z,26.50
2018-06-11T11:13:55.626Z,26.30
2018-06-11T11:16:24.165Z,26.30
2018-06-11T11:18:52.405Z,26.80
2018-06-11T11:21:20.680Z,27.10
2018-06-11T11:23:48.892Z,27.20
2018-06-11T11:26:17.251Z,26.80
2018-06-11T11:28:45.501Z,26.50
2018-06-11T11:31:13.776Z,26.50
2018-06-11T11:33:42.083Z,26.40
2018-06-11T11:36:10.271Z,26.40
2018-06-11T11:38:38.700Z,26.30
2018-06-11T11:41:06.924Z,26.40
2018-06-11T11:43:35.168Z,26.60
2018-06-11T11:46:03.464Z,26.50
2018-06-11T11:48:31.806Z,26.40
2018-06-11T11:51:00.256Z,26.70
2018-06-11T11:53:28.480Z,27.20
2018-06-11T11:55:56.884Z,27.50
2018-06-11T11:58:25.229Z,27.60
2018-06-11T12:00:53.477Z,27.70
2018-06-11T12:03:21.800Z,27.60
2018-06-11T12:05:50.184Z,27.90
2018-06-11T12:08:19.128Z,28.30
2018-06-11T12:10:47.422Z,28.60
2018-06-11T12:13:15.716Z,29.00
2018-06-11T12:15:43.976Z,29.10
2018-06-11T12:18:13.029Z,28.90
2018-06-11T12:20:41.404Z,28.70
2018-06-11T12:23:09.662Z,28.90
2018-06-11T12:25:37.936Z,29.20
2018-06-11T12:28:06.193Z,29.50
2018-06-11T12:30:34.467Z,29.50
2018-06-11T12:33:02.694Z,29.70
2018-06-11T12:37:58.911Z,29.60
2018-06-11T12:40:28.128Z,29.80
2018-06-11T12:42:56.384Z,29.70
2018-06-11T12:45:24.691Z,29.40
2018-06-11T12:47:53.449Z,29.20
2018-06-11T12:50:21.708Z,29.40
2018-06-11T12:52:49.962Z,29.70
2018-06-11T12:55:19.604Z,29.90
2018-06-11T12:57:48.824Z,30.00
2018-06-11T13:00:17.064Z,30.10
2018-06-11T13:02:45.597Z,30.10
2018-06-11T13:05:13.857Z,29.90
2018-06-11T13:07:42.106Z,29.60
2018-06-11T13:10:11.132Z,29.30
2018-06-11T13:12:41.532Z,29.30
2018-06-11T13:15:09.885Z,29.20
2018-06-11T13:17:38.148Z,29.20
2018-06-11T13:20:06.420Z,29.60
2018-06-11T13:22:34.738Z,29.90
2018-06-11T13:25:02.992Z,29.80
2018-06-11T13:27:31.348Z,29.60
2018-06-11T13:29:59.665Z,29.60
2018-06-11T13:32:27.952Z,29.80
2018-06-11T13:34:56.196Z,29.90
2018-06-11T13:37:24.420Z,29.80
2018-06-11T13:39:52.686Z,29.80
2018-06-11T13:42:21.052Z,29.80
2018-06-11T13:44:49.279Z,29.60
2018-06-11T13:47:17.509Z,29.40
2018-06-11T13:49:45.772Z,29.10
2018-06-11T13:52:14.061Z,28.70
2018-06-11T13:54:42.293Z,28.20
2018-06-11T13:57:10.537Z,27.90
2018-06-11T13:59:39.240Z,27.70
2018-06-11T14:02:07.496Z,27.70
2018-06-11T14:04:37.381Z,27.70
2018-06-11T14:07:05.643Z,27.50
2018-06-11T14:09:33.891Z,27.40
2018-06-11T14:12:02.241Z,27.50
2018-06-11T14:14:30.476Z,27.70
2018-06-11T14:16:58.760Z,27.90
2018-06-11T14:19:26.998Z,27.90
2018-06-11T14:21:55.274Z,28.00
2018-06-11T14:24:23.523Z,28.40
2018-06-11T14:26:51.783Z,28.50
2018-06-11T14:29:20.001Z,28.50
2018-06-11T14:31:48.555Z,28.30
2018-06-11T14:34:16.815Z,28.00
2018-06-11T14:39:13.167Z,27.50
2018-06-11T14:41:41.421Z,27.50
2018-06-11T14:44:09.764Z,27.30
2018-06-11T14:46:38.008Z,27.20
2018-06-11T14:51:34.293Z,27.40
2018-06-11T14:54:02.536Z,27.60
2018-06-11T14:56:30.794Z,27.80
2018-06-11T14:58:59.088Z,28.00
2018-06-11T15:01:27.515Z,28.30
2018-06-11T15:03:55.777Z,28.20
2018-06-11T15:06:24.022Z,27.90
2018-06-11T15:08:52.314Z,27.40
2018-06-11T15:11:21.100Z,26.90
2018-06-11T15:13:49.344Z,26.40
2018-06-11T15:16:18.268Z,26.00
2018-06-11T15:18:46.529Z,25.50
2018-06-11T15:21:15.571Z,25.10
2018-06-11T15:23:43.817Z,24.80
2018-06-11T15:26:12.092Z,24.30
2018-06-11T15:28:40.339Z,23.90
2018-06-11T15:31:08.581Z,23.70
2018-06-11T15:33:36.849Z,23.50
2018-06-11T15:36:05.117Z,23.40
2018-06-11T15:38:33.424Z,23.20
2018-06-11T15:41:01.703Z,23.00
2018-06-11T15:43:29.994Z,22.90
2018-06-11T15:45:58.237Z,22.70
2018-06-11T15:48:26.477Z,22.60
2018-06-11T15:50:54.725Z,22.50
2018-06-11T15:53:23.000Z,22.40
2018-06-11T15:55:51.293Z,22.30
2018-06-11T15:58:19.745Z,22.20
2018-06-11T16:00:48.044Z,22.10
2018-06-11T16:03:16.313Z,22.10
2018-06-11T16:05:44.595Z,21.90
2018-06-11T16:08:12.861Z,21.80
2018-06-11T16:13:09.245Z,21.70
2018-06-11T16:15:37.528Z,21.60
2018-06-11T16:18:05.805Z,21.50
2018-06-11T16:20:34.089Z,21.40
2018-06-11T16:23:02.316Z,21.30
2018-06-11T16:25:30.616Z,21.20
2018-06-11T16:27:58.888Z,21.10
2018-06-11T16:30:27.147Z,21.10
2018-06-11T16:32:55.436Z,21.00
2018-06-11T16:35:23.698Z,20.90
2018-06-11T16:37:52.017Z,20.80
2018-06-11T16:40:20.288Z,20.70
2018-06-11T16:42:48.565Z,20.70
2018-06-11T16:45:16.872Z,20.60
2018-06-11T16:47:45.144Z,20.50
2018-06-11T16:50:13.360Z,20.50
2018-06-11T16:52:41.634Z,20.40
2018-06-11T16:55:09.950Z,20.40
2018-06-11T16:57:38.210Z,20.30
2018-06-11T17:00:06.488Z,20.30
2018-06-11T17:02:34.743Z,20.20
2018-06-11T17:05:02.990Z,20.20
2018-06-11T17:07:31.258Z,20.10
2018-06-11T17:09:59.531Z,20.00
2018-06-11T17:12:27.876Z,20.00
2018-06-11T17:14:56.123Z,19.90
2018-06-11T17:17:24.367Z,19.80
2018-06-11T17:19:52.747Z,19.70
2018-06-11T17:22:21.074Z,19.70
2018-06-11T17:24:49.304Z,19.60
2018-06-11T17:27:17.572Z,19.60
2018-06-11T17:29:45.848Z,19.50
2018-06-11T17:32:14.137Z,19.40
2018-06-11T17:34:42.465Z,19.40
2018-06-11T17:37:10.714Z,19.30
2018-06-11T17:39:38.956Z,19.30
2018-06-11T17:42:07.513Z,19.30
2018-06-11T17:44:35.787Z,19.20
2018-06-11T17:47:04.051Z,19.10
2018-06-11T17:49:32.291Z,19.10
2018-06-11T17:54:28.567Z,18.90
2018-06-11T17:56:56.860Z,18.90
2018-06-11T17:59:25.140Z,18.80
2018-06-11T18:01:53.377Z,18.80
2018-06-11T18:04:21.699Z,18.70
2018-06-11T18:06:49.879Z,18.70
2018-06-11T18:09:18.172Z,18.60
2018-06-11T18:11:46.448Z,18.50
2018-06-11T18:14:14.660Z,18.50
2018-06-11T18:16:42.920Z,18.50
2018-06-11T18:19:11.185Z,18.40
2018-06-11T18:21:39.400Z,18.40
2018-06-11T18:24:07.913Z,18.30
2018-06-11T18:26:36.190Z,18.30
2018-06-11T18:29:04.519Z,18.20
2018-06-11T18:31:32.813Z,18.10
2018-06-11T18:34:01.119Z,18.10
2018-06-11T18:36:29.387Z,18.00
2018-06-11T18:38:57.624Z,17.90
2018-06-11T18:41:25.880Z,17.90
2018-06-11T18:46:45.164Z,17.70
2018-06-11T18:49:13.518Z,17.60
2018-06-11T18:51:41.840Z,17.50
2018-06-11T18:54:10.276Z,17.40
2018-06-11T18:56:38.687Z,17.30
2018-06-11T18:59:07.177Z,17.30
2018-06-11T19:01:35.512Z,17.20
2018-06-11T19:04:03.931Z,17.10
2018-06-11T19:06:32.575Z,17.00
2018-06-11T19:09:00.915Z,17.00
2018-06-11T19:11:29.260Z,16.80
2018-06-11T19:13:57.600Z,16.80
2018-06-11T19:16:25.955Z,16.70
2018-06-11T19:18:54.297Z,16.70
2018-06-11T19:21:22.648Z,16.60
2018-06-11T19:23:50.972Z,16.50
2018-06-11T19:26:19.294Z,16.50
2018-06-11T19:28:47.644Z,16.50
2018-06-11T19:31:15.929Z,16.40
2018-06-11T19:33:44.371Z,16.40
2018-06-11T19:38:40.822Z,16.20
2018-06-11T19:41:09.215Z,16.20
2018-06-11T19:43:37.545Z,16.20
2018-06-11T19:46:05.948Z,16.10
2018-06-11T19:48:34.279Z,16.10
2018-06-11T19:51:02.739Z,16.00
2018-06-11T19:53:31.059Z,16.00
2018-06-11T19:55:59.512Z,15.90
2018-06-11T19:58:27.897Z,15.90
2018-06-11T20:00:56.273Z,15.90
2018-06-11T20:03:24.614Z,15.90
2018-06-11T20:05:53.308Z,15.90
2018-06-11T20:08:21.623Z,15.90
2018-06-11T20:10:49.944Z,15.80
2018-06-11T20:13:18.232Z,15.80
2018-06-11T20:15:46.605Z,15.80
2018-06-11T20:18:14.935Z,15.70
2018-06-11T20:20:43.262Z,15.70
2018-06-11T20:23:11.655Z,15.70
2018-06-11T20:25:39.976Z,15.70
2018-06-11T20:28:08.264Z,15.70
2018-06-11T20:30:36.565Z,15.70
2018-06-11T20:33:05.020Z,15.70
2018-06-11T20:35:33.317Z,15.70
2018-06-11T20:38:01.625Z,15.70
2018-06-11T20:40:29.932Z,15.70
2018-06-11T20:42:58.302Z,15.80
2018-06-11T20:45:26.619Z,15.80
2018-06-11T20:47:54.963Z,15.80
2018-06-11T20:50:23.801Z,15.80
2018-06-11T20:52:52.184Z,15.80
2018-06-11T20:55:20.561Z,15.80
2018-06-11T20:57:49.938Z,15.80
2018-06-11T21:00:18.239Z,15.80
2018-06-11T21:02:46.603Z,15.80
2018-06-11T21:05:14.923Z,15.80
2018-06-11T21:07:43.225Z,15.80
2018-06-11T21:10:11.703Z,15.80
2018-06-11T21:12:40.032Z,15.90
2018-06-11T21:15:08.395Z,15.90
2018-06-11T21:17:36.796Z,15.90
2018-06-11T21:20:05.274Z,15.90
2018-06-11T21:22:33.607Z,15.90
2018-06-11T21:25:01.933Z,15.90
2018-06-11T21:27:30.308Z,15.90
2018-06-11T21:29:58.640Z,15.90
2018-06-11T21:32:27.039Z,15.90
2018-06-11T21:34:55.391Z,15.80
2018-06-11T21:37:23.794Z,15.80
2018-06-11T21:39:52.126Z,15.70
2018-06-11T21:42:20.457Z,15.70
2018-06-11T21:44:48.776Z,15.70
2018-06-11T21:47:17.081Z,15.70
2018-06-11T21:49:45.378Z,15.60
2018-06-11T21:52:13.772Z,15.60
2018-06-11T21:54:42.092Z,15.60
2018-06-11T21:57:10.416Z,15.60
2018-06-11T22:02:06.919Z,15.60
2018-06-11T22:04:35.277Z,15.60
2018-06-11T22:07:03.658Z,15.60
2018-06-11T22:09:32.016Z,15.60
2018-06-11T22:12:01.745Z,15.60
2018-06-11T22:14:30.237Z,15.60
2018-06-11T22:16:58.737Z,15.60
2018-06-11T22:19:27.036Z,15.60
2018-06-11T22:21:55.563Z,15.60
2018-06-11T22:24:23.868Z,15.60
2018-06-11T22:26:52.679Z,15.50
2018-06-11T22:29:21.220Z,15.50
2018-06-11T22:31:49.652Z,15.50
2018-06-11T22:34:18.192Z,15.50
2018-06-11T22:36:46.612Z,15.50
2018-06-11T22:39:14.952Z,15.50
2018-06-11T22:41:43.364Z,15.40
2018-06-11T22:44:11.708Z,15.40
2018-06-11T22:46:40.021Z,15.40
2018-06-11T22:49:08.432Z,15.40
2018-06-11T22:51:36.767Z,15.40
2018-06-11T22:54:05.228Z,15.40
2018-06-11T22:56:33.583Z,15.40
2018-06-11T22:59:01.901Z,15.40
2018-06-11T23:01:30.225Z,15.40
2018-06-11T23:06:26.603Z,15.30
2018-06-11T23:08:54.920Z,15.30
2018-06-11T23:11:29.997Z,15.20
2018-06-11T23:13:58.347Z,15.20
2018-06-11T23:18:54.689Z,15.20
2018-06-11T23:21:23.037Z,15.20
2018-06-11T23:23:51.339Z,15.20
2018-06-11T23:26:19.779Z,15.20
2018-06-11T23:28:48.092Z,15.10
2018-06-11T23:31:16.493Z,15.10
2018-06-11T23:33:44.847Z,15.10
2018-06-11T23:36:13.180Z,15.10
2018-06-11T23:38:41.513Z,15.10
2018-06-11T23:41:09.950Z,15.10
2018-06-11T23:46:13.042Z,15.00
2018-06-11T23:48:41.388Z,15.10
2018-06-11T23:51:09.802Z,15.00
2018-06-11T23:53:38.135Z,15.00
2018-06-11T23:56:06.559Z,15.00
2018-06-11T23:58:34.863Z,15.10
